Ryoshin Maru — JD2464 — position and weather

sailwx.info

Track history (hours):
 
Tides and Currents Weather Stations Pressure Air Temp Water Temp Dewpoint Dewpoint Depression Visibility Wind Speed Wind Dir Waves Ship Positions

Ryoshin Maru

Last reported at 2017-Oct-17 11:54 UTC. Time now 2017-Oct-19 16:54 UTC.
Position N 34°04' E 134°59'.

Length 60 m; draft 4.9 m.

Type: Tanker. MMSI: 431000263.

Date/timePositionNaut miles runAvg speedWind from/ knotsBaromVisibWave heightAir tempDewpointWater temp
2017-Oct-17 11:54N 34°04' E 134°59'511.9
2017-Oct-17 11:27N 34°10' E 134°59'511.5
2017-Oct-17 11:00N 34°15' E 134°59'910.3
2017-Oct-17 10:08N 34°23' E 135°00'310.9
2017-Oct-17 09:52N 34°26' E 135°01'410.5
2017-Oct-17 09:30N 34°30' E 135°02'5 9.7
2017-Oct-17 08:59N 34°35' E 135°03'203 4.2
2017-Oct-15 08:45N 34°49' E 139°09'1910.8
2017-Oct-15 06:57N 35°01' E 139°28'511.4
2017-Oct-15 06:29N 35°03' E 139°34'611.4
2017-Oct-15 06:00N 35°06' E 139°40'611.9
2017-Oct-15 05:30N 35°10' E 139°44'611.7
2017-Oct-15 05:00N 35°16' E 139°46'612.2
2017-Oct-15 04:30N 35°21' E 139°42'612.1
2017-Oct-15 04:00N 35°27' E 139°43'3 6.8
2017-Oct-15 03:30N 35°30' E 139°45'0 0.0
2017-Oct-15 01:16N 35°30' E 139°45'1 2.5
2017-Oct-15 01:00N 35°30' E 139°45'3 5.8
2017-Oct-15 00:29N 35°29' E 139°49'0 0.0
2017-Oct-14 23:59N 35°29' E 139°49'0 0.0
2017-Oct-14 23:29N 35°29' E 139°49'0 0.0
2017-Oct-14 22:59N 35°29' E 139°49'0 0.0
2017-Oct-14 22:29N 35°29' E 139°49'3 7.2
2017-Oct-14 22:00N 35°26' E 139°47'612.0
2017-Oct-14 21:30N 35°20' E 139°45'510.7
2017-Oct-14 21:00N 35°15' E 139°47'611.0
2017-Oct-14 20:30N 35°10' E 139°46'611.5
2017-Oct-14 20:01N 35°05' E 139°42'612.4
2017-Oct-14 19:30N 35°01' E 139°36'  
2017-Oct-08 05:55N 34°41' E 134°48'  
Track history (hours):
 
Tides and Currents Weather Stations Pressure Air Temp Water Temp Dewpoint Dewpoint Depression Visibility Wind Speed Wind Dir Waves Ship Positions

Ryoshin Maru

Last reported at 2017-Oct-17 11:54 UTC. Time now 2017-Oct-19 16:54 UTC.
Position N 34°04' E 134°59'.

Length 60 m; draft 4.9 m.

Type: Tanker. MMSI: 431000263.

Date/timePositionNaut miles runAvg speedWind from/ knotsBaromVisibWave heightAir tempDewpointWater temp
2017-Oct-17 11:54N 34°04' E 134°59'511.9
2017-Oct-17 11:27N 34°10' E 134°59'511.5
2017-Oct-17 11:00N 34°15' E 134°59'910.3
2017-Oct-17 10:08N 34°23' E 135°00'310.9
2017-Oct-17 09:52N 34°26' E 135°01'410.5
2017-Oct-17 09:30N 34°30' E 135°02'5 9.7
2017-Oct-17 08:59N 34°35' E 135°03'203 4.2
2017-Oct-15 08:45N 34°49' E 139°09'1910.8
2017-Oct-15 06:57N 35°01' E 139°28'511.4
2017-Oct-15 06:29N 35°03' E 139°34'611.4
2017-Oct-15 06:00N 35°06' E 139°40'611.9
2017-Oct-15 05:30N 35°10' E 139°44'611.7
2017-Oct-15 05:00N 35°16' E 139°46'612.2
2017-Oct-15 04:30N 35°21' E 139°42'612.1
2017-Oct-15 04:00N 35°27' E 139°43'3 6.8
2017-Oct-15 03:30N 35°30' E 139°45'0 0.0
2017-Oct-15 01:16N 35°30' E 139°45'1 2.5
2017-Oct-15 01:00N 35°30' E 139°45'3 5.8
2017-Oct-15 00:29N 35°29' E 139°49'0 0.0
2017-Oct-14 23:59N 35°29' E 139°49'0 0.0
2017-Oct-14 23:29N 35°29' E 139°49'0 0.0
2017-Oct-14 22:59N 35°29' E 139°49'0 0.0
2017-Oct-14 22:29N 35°29' E 139°49'3 7.2
2017-Oct-14 22:00N 35°26' E 139°47'612.0
2017-Oct-14 21:30N 35°20' E 139°45'510.7
2017-Oct-14 21:00N 35°15' E 139°47'611.0
2017-Oct-14 20:30N 35°10' E 139°46'611.5
2017-Oct-14 20:01N 35°05' E 139°42'612.4
2017-Oct-14 19:30N 35°01' E 139°36'  
2017-Oct-08 05:55N 34°41' E 134°48'  

Dump ship's entire track history